sensor_id;sensor_type;location;lat;lon;timestamp;temperature;humidity
4223;DHT22;2125;51.436;14.138;2022-08-01T00:00:09;22.20;68.30
4223;DHT22;2125;51.436;14.138;2022-08-01T00:02:36;22.10;68.30
4223;DHT22;2125;51.436;14.138;2022-08-01T00:05:04;22.00;68.80
4223;DHT22;2125;51.436;14.138;2022-08-01T00:07:31;22.00;68.50
4223;DHT22;2125;51.436;14.138;2022-08-01T00:10:00;21.90;69.10
4223;DHT22;2125;51.436;14.138;2022-08-01T00:12:26;21.80;69.20
4223;DHT22;2125;51.436;14.138;2022-08-01T00:14:53;21.80;69.50
4223;DHT22;2125;51.436;14.138;2022-08-01T00:17:19;21.80;69.50
4223;DHT22;2125;51.436;14.138;2022-08-01T00:19:46;21.80;69.70
4223;DHT22;2125;51.436;14.138;2022-08-01T00:22:12;21.60;69.50
4223;DHT22;2125;51.436;14.138;2022-08-01T00:24:39;21.60;70.00
4223;DHT22;2125;51.436;14.138;2022-08-01T00:27:07;21.60;70.30
4223;DHT22;2125;51.436;14.138;2022-08-01T00:29:34;21.50;70.10
4223;DHT22;2125;51.436;14.138;2022-08-01T00:32:00;21.40;70.50
4223;DHT22;2125;51.436;14.138;2022-08-01T00:34:27;21.40;70.90
4223;DHT22;2125;51.436;14.138;2022-08-01T00:36:53;21.30;71.10
4223;DHT22;2125;51.436;14.138;2022-08-01T00:39:20;21.30;71.40
4223;DHT22;2125;51.436;14.138;2022-08-01T00:41:52;21.20;71.70
4223;DHT22;2125;51.436;14.138;2022-08-01T00:44:20;21.10;71.70
4223;DHT22;2125;51.436;14.138;2022-08-01T00:46:47;20.90;72.30
4223;DHT22;2125;51.436;14.138;2022-08-01T00:49:13;20.90;72.60
4223;DHT22;2125;51.436;14.138;2022-08-01T00:51:40;20.80;72.80
4223;DHT22;2125;51.436;14.138;2022-08-01T00:54:07;20.70;72.80
4223;DHT22;2125;51.436;14.138;2022-08-01T00:56:34;20.70;73.30
4223;DHT22;2125;51.436;14.138;2022-08-01T00:59:00;20.70;73.60
4223;DHT22;2125;51.436;14.138;2022-08-01T01:01:31;20.60;73.60
4223;DHT22;2125;51.436;14.138;2022-08-01T01:03:57;20.50;73.70
4223;DHT22;2125;51.436;14.138;2022-08-01T01:06:28;20.40;74.10
4223;DHT22;2125;51.436;14.138;2022-08-01T01:09:07;20.30;74.50
4223;DHT22;2125;51.436;14.138;2022-08-01T01:11:43;20.20;74.80
4223;DHT22;2125;51.436;14.138;2022-08-01T01:14:16;20.20;75.00
4223;DHT22;2125;51.436;14.138;2022-08-01T01:16:46;20.20;75.20
4223;DHT22;2125;51.436;14.138;2022-08-01T01:19:19;20.10;75.30
4223;DHT22;2125;51.436;14.138;2022-08-01T01:22:08;20.00;75.50
4223;DHT22;2125;51.436;14.138;2022-08-01T01:24:47;19.90;75.70
4223;DHT22;2125;51.436;14.138;2022-08-01T01:27:21;19.80;76.00
4223;DHT22;2125;51.436;14.138;2022-08-01T01:29:54;19.80;76.10
4223;DHT22;2125;51.436;14.138;2022-08-01T01:32:26;19.70;76.10
4223;DHT22;2125;51.436;14.138;2022-08-01T01:34:55;19.70;76.30
4223;DHT22;2125;51.436;14.138;2022-08-01T01:37:25;19.60;76.40
4223;DHT22;2125;51.436;14.138;2022-08-01T01:39:53;19.50;76.80
4223;DHT22;2125;51.436;14.138;2022-08-01T01:42:20;19.40;77.00
4223;DHT22;2125;51.436;14.138;2022-08-01T01:44:49;19.40;77.40
4223;DHT22;2125;51.436;14.138;2022-08-01T01:47:17;19.30;77.60
4223;DHT22;2125;51.436;14.138;2022-08-01T01:49:46;19.30;77.70
4223;DHT22;2125;51.436;14.138;2022-08-01T01:52:16;19.30;77.70
4223;DHT22;2125;51.436;14.138;2022-08-01T01:54:46;19.20;77.90
4223;DHT22;2125;51.436;14.138;2022-08-01T01:57:15;19.20;77.90
4223;DHT22;2125;51.436;14.138;2022-08-01T01:59:44;19.20;78.00
4223;DHT22;2125;51.436;14.138;2022-08-01T02:02:12;19.10;78.20
4223;DHT22;2125;51.436;14.138;2022-08-01T02:04:45;19.10;78.40
4223;DHT22;2125;51.436;14.138;2022-08-01T02:07:14;19.00;78.60
4223;DHT22;2125;51.436;14.138;2022-08-01T02:09:42;18.90;78.80
4223;DHT22;2125;51.436;14.138;2022-08-01T02:12:10;18.90;79.10
4223;DHT22;2125;51.436;14.138;2022-08-01T02:14:39;18.90;79.20
4223;DHT22;2125;51.436;14.138;2022-08-01T02:17:06;18.80;79.20
4223;DHT22;2125;51.436;14.138;2022-08-01T02:19:35;18.80;79.40
4223;DHT22;2125;51.436;14.138;2022-08-01T02:22:07;18.80;79.60
4223;DHT22;2125;51.436;14.138;2022-08-01T02:24:37;18.80;79.70
4223;DHT22;2125;51.436;14.138;2022-08-01T02:27:07;18.80;80.00
4223;DHT22;2125;51.436;14.138;2022-08-01T02:29:39;18.80;79.90
4223;DHT22;2125;51.436;14.138;2022-08-01T02:32:08;18.80;80.00
4223;DHT22;2125;51.436;14.138;2022-08-01T02:34:38;18.90;80.10
4223;DHT22;2125;51.436;14.138;2022-08-01T02:37:09;19.00;80.10
4223;DHT22;2125;51.436;14.138;2022-08-01T02:39:38;19.10;80.20
4223;DHT22;2125;51.436;14.138;2022-08-01T02:42:06;19.20;79.80
4223;DHT22;2125;51.436;14.138;2022-08-01T02:44:37;19.20;79.70
4223;DHT22;2125;51.436;14.138;2022-08-01T02:47:05;19.30;79.50
4223;DHT22;2125;51.436;14.138;2022-08-01T02:49:35;19.40;79.20
4223;DHT22;2125;51.436;14.138;2022-08-01T02:52:07;19.40;79.50
4223;DHT22;2125;51.436;14.138;2022-08-01T02:54:35;19.40;79.60
4223;DHT22;2125;51.436;14.138;2022-08-01T02:57:04;19.50;79.60
4223;DHT22;2125;51.436;14.138;2022-08-01T02:59:34;19.50;79.80
4223;DHT22;2125;51.436;14.138;2022-08-01T03:02:03;19.50;79.60
4223;DHT22;2125;51.436;14.138;2022-08-01T03:04:33;19.50;79.60
4223;DHT22;2125;51.436;14.138;2022-08-01T03:07:03;19.60;79.10
4223;DHT22;2125;51.436;14.138;2022-08-01T03:09:34;19.60;79.20
4223;DHT22;2125;51.436;14.138;2022-08-01T03:12:04;19.70;79.10
4223;DHT22;2125;51.436;14.138;2022-08-01T03:14:34;19.80;78.80
4223;DHT22;2125;51.436;14.138;2022-08-01T03:17:04;19.80;78.90
4223;DHT22;2125;51.436;14.138;2022-08-01T03:19:31;19.80;79.00
4223;DHT22;2125;51.436;14.138;2022-08-01T03:22:00;19.80;78.90
4223;DHT22;2125;51.436;14.138;2022-08-01T03:24:30;19.80;78.80
4223;DHT22;2125;51.436;14.138;2022-08-01T03:26:57;19.80;79.00
4223;DHT22;2125;51.436;14.138;2022-08-01T03:29:26;19.80;79.00
4223;DHT22;2125;51.436;14.138;2022-08-01T03:31:53;19.80;78.90
4223;DHT22;2125;51.436;14.138;2022-08-01T03:34:20;19.80;79.10
4223;DHT22;2125;51.436;14.138;2022-08-01T03:36:51;19.80;79.10
4223;DHT22;2125;51.436;14.138;2022-08-01T03:39:23;19.80;79.00
4223;DHT22;2125;51.436;14.138;2022-08-01T03:41:57;19.70;79.00
4223;DHT22;2125;51.436;14.138;2022-08-01T03:44:26;19.80;79.00
4223;DHT22;2125;51.436;14.138;2022-08-01T03:46:58;19.80;79.00
4223;DHT22;2125;51.436;14.138;2022-08-01T03:49:30;19.70;79.00
4223;DHT22;2125;51.436;14.138;2022-08-01T03:51:57;19.80;79.00
4223;DHT22;2125;51.436;14.138;2022-08-01T03:54:30;19.80;79.00
4223;DHT22;2125;51.436;14.138;2022-08-01T03:57:00;19.80;79.00
4223;DHT22;2125;51.436;14.138;2022-08-01T03:59:27;19.90;78.90
4223;DHT22;2125;51.436;14.138;2022-08-01T04:01:55;19.90;78.80
4223;DHT22;2125;51.436;14.138;2022-08-01T04:04:22;20.00;78.90
4223;DHT22;2125;51.436;14.138;2022-08-01T04:06:49;20.00;78.70
4223;DHT22;2125;51.436;14.138;2022-08-01T04:09:19;20.10;78.90
4223;DHT22;2125;51.436;14.138;2022-08-01T04:11:46;20.10;78.70
4223;DHT22;2125;51.436;14.138;2022-08-01T04:14:14;20.10;78.70
4223;DHT22;2125;51.436;14.138;2022-08-01T04:16:41;20.10;78.70
4223;DHT22;2125;51.436;14.138;2022-08-01T04:19:08;20.20;78.80
4223;DHT22;2125;51.436;14.138;2022-08-01T04:21:35;20.20;78.70
4223;DHT22;2125;51.436;14.138;2022-08-01T04:24:07;20.30;78.70
4223;DHT22;2125;51.436;14.138;2022-08-01T04:26:36;20.40;78.80
4223;DHT22;2125;51.436;14.138;2022-08-01T04:29:04;20.40;78.60
4223;DHT22;2125;51.436;14.138;2022-08-01T04:31:33;20.50;78.10
4223;DHT22;2125;51.436;14.138;2022-08-01T04:34:04;20.60;78.20
4223;DHT22;2125;51.436;14.138;2022-08-01T04:36:33;20.70;77.90
4223;DHT22;2125;51.436;14.138;2022-08-01T04:39:01;20.80;77.50
4223;DHT22;2125;51.436;14.138;2022-08-01T04:41:30;20.90;77.70
4223;DHT22;2125;51.436;14.138;2022-08-01T04:43:57;21.00;77.40
4223;DHT22;2125;51.436;14.138;2022-08-01T04:46:25;21.00;76.90
4223;DHT22;2125;51.436;14.138;2022-08-01T04:48:54;21.10;76.60
4223;DHT22;2125;51.436;14.138;2022-08-01T04:51:22;21.20;76.80
4223;DHT22;2125;51.436;14.138;2022-08-01T04:53:49;21.30;76.60
4223;DHT22;2125;51.436;14.138;2022-08-01T04:56:17;21.50;76.40
4223;DHT22;2125;51.436;14.138;2022-08-01T04:58:44;21.50;75.30
4223;DHT22;2125;51.436;14.138;2022-08-01T05:01:11;21.60;74.70
4223;DHT22;2125;51.436;14.138;2022-08-01T05:03:37;21.90;75.10
4223;DHT22;2125;51.436;14.138;2022-08-01T05:06:05;22.70;73.00
4223;DHT22;2125;51.436;14.138;2022-08-01T05:08:32;22.90;72.40
4223;DHT22;2125;51.436;14.138;2022-08-01T05:10:59;22.80;72.10
4223;DHT22;2125;51.436;14.138;2022-08-01T05:13:26;22.60;72.70
4223;DHT22;2125;51.436;14.138;2022-08-01T05:15:53;22.60;73.30
4223;DHT22;2125;51.436;14.138;2022-08-01T05:18:19;22.50;73.20
4223;DHT22;2125;51.436;14.138;2022-08-01T05:20:47;22.40;73.40
4223;DHT22;2125;51.436;14.138;2022-08-01T05:23:15;22.30;73.20
4223;DHT22;2125;51.436;14.138;2022-08-01T05:25:42;22.30;74.10
4223;DHT22;2125;51.436;14.138;2022-08-01T05:28:08;22.20;73.90
4223;DHT22;2125;51.436;14.138;2022-08-01T05:30:35;22.10;74.20
4223;DHT22;2125;51.436;14.138;2022-08-01T05:33:02;22.10;74.60
4223;DHT22;2125;51.436;14.138;2022-08-01T05:35:28;22.10;74.50
4223;DHT22;2125;51.436;14.138;2022-08-01T05:37:55;22.10;74.70
4223;DHT22;2125;51.436;14.138;2022-08-01T05:40:23;22.20;73.90
4223;DHT22;2125;51.436;14.138;2022-08-01T05:42:50;22.20;73.90
4223;DHT22;2125;51.436;14.138;2022-08-01T05:45:17;22.10;74.20
4223;DHT22;2125;51.436;14.138;2022-08-01T05:47:43;22.00;74.70
4223;DHT22;2125;51.436;14.138;2022-08-01T05:50:10;22.10;75.10
4223;DHT22;2125;51.436;14.138;2022-08-01T05:52:37;22.10;74.80
4223;DHT22;2125;51.436;14.138;2022-08-01T05:55:04;22.30;74.10
4223;DHT22;2125;51.436;14.138;2022-08-01T05:57:32;22.30;74.10
4223;DHT22;2125;51.436;14.138;2022-08-01T05:59:59;22.40;74.10
4223;DHT22;2125;51.436;14.138;2022-08-01T06:02:33;22.60;74.10
4223;DHT22;2125;51.436;14.138;2022-08-01T06:05:00;22.70;74.30
4223;DHT22;2125;51.436;14.138;2022-08-01T06:07:27;23.00;73.60
4223;DHT22;2125;51.436;14.138;2022-08-01T06:09:53;23.20;72.70
4223;DHT22;2125;51.436;14.138;2022-08-01T06:12:20;23.30;72.20
4223;DHT22;2125;51.436;14.138;2022-08-01T06:14:48;23.40;72.10
4223;DHT22;2125;51.436;14.138;2022-08-01T06:17:15;23.40;72.70
4223;DHT22;2125;51.436;14.138;2022-08-01T06:19:41;23.40;72.40
4223;DHT22;2125;51.436;14.138;2022-08-01T06:22:08;23.50;72.90
4223;DHT22;2125;51.436;14.138;2022-08-01T06:24:34;23.70;72.50
4223;DHT22;2125;51.436;14.138;2022-08-01T06:27:02;23.70;72.20
4223;DHT22;2125;51.436;14.138;2022-08-01T06:29:30;23.50;72.90
4223;DHT22;2125;51.436;14.138;2022-08-01T06:31:58;23.20;74.00
4223;DHT22;2125;51.436;14.138;2022-08-01T06:34:25;23.20;74.60
4223;DHT22;2125;51.436;14.138;2022-08-01T06:36:52;23.40;74.00
4223;DHT22;2125;51.436;14.138;2022-08-01T06:39:18;23.40;74.20
4223;DHT22;2125;51.436;14.138;2022-08-01T06:41:45;23.20;73.90
4223;DHT22;2125;51.436;14.138;2022-08-01T06:44:15;23.10;74.70
4223;DHT22;2125;51.436;14.138;2022-08-01T06:46:41;22.90;75.10
4223;DHT22;2125;51.436;14.138;2022-08-01T06:49:09;22.80;75.70
4223;DHT22;2125;51.436;14.138;2022-08-01T06:51:36;22.60;76.00
4223;DHT22;2125;51.436;14.138;2022-08-01T06:54:03;22.60;76.70
4223;DHT22;2125;51.436;14.138;2022-08-01T06:56:29;22.60;76.90
4223;DHT22;2125;51.436;14.138;2022-08-01T06:58:56;22.80;76.90
4223;DHT22;2125;51.436;14.138;2022-08-01T07:01:26;23.00;76.60
4223;DHT22;2125;51.436;14.138;2022-08-01T07:03:53;23.20;76.20
4223;DHT22;2125;51.436;14.138;2022-08-01T07:06:21;23.40;75.70
4223;DHT22;2125;51.436;14.138;2022-08-01T07:08:48;23.70;75.10
4223;DHT22;2125;51.436;14.138;2022-08-01T07:11:14;23.80;74.10
4223;DHT22;2125;51.436;14.138;2022-08-01T07:13:41;23.80;75.00
4223;DHT22;2125;51.436;14.138;2022-08-01T07:16:08;23.90;75.60
4223;DHT22;2125;51.436;14.138;2022-08-01T07:18:34;24.00;75.20
4223;DHT22;2125;51.436;14.138;2022-08-01T07:21:01;23.90;73.90
4223;DHT22;2125;51.436;14.138;2022-08-01T07:23:31;23.70;74.80
4223;DHT22;2125;51.436;14.138;2022-08-01T07:25:58;23.50;75.20
4223;DHT22;2125;51.436;14.138;2022-08-01T07:28:28;23.50;76.20
4223;DHT22;2125;51.436;14.138;2022-08-01T07:30:54;23.70;75.30
4223;DHT22;2125;51.436;14.138;2022-08-01T07:33:21;23.70;75.40
4223;DHT22;2125;51.436;14.138;2022-08-01T07:35:48;23.90;75.30
4223;DHT22;2125;51.436;14.138;2022-08-01T07:38:15;23.90;74.40
4223;DHT22;2125;51.436;14.138;2022-08-01T07:40:44;23.80;74.60
4223;DHT22;2125;51.436;14.138;2022-08-01T07:43:10;23.80;74.70
4223;DHT22;2125;51.436;14.138;2022-08-01T07:45:37;23.90;75.00
4223;DHT22;2125;51.436;14.138;2022-08-01T07:48:04;24.10;74.40
4223;DHT22;2125;51.436;14.138;2022-08-01T07:50:31;24.70;73.80
4223;DHT22;2125;51.436;14.138;2022-08-01T07:53:00;25.00;72.50
4223;DHT22;2125;51.436;14.138;2022-08-01T07:55:27;25.00;71.40
4223;DHT22;2125;51.436;14.138;2022-08-01T07:57:55;25.00;71.70
4223;DHT22;2125;51.436;14.138;2022-08-01T08:00:22;24.70;71.70
4223;DHT22;2125;51.436;14.138;2022-08-01T08:02:49;24.50;72.20
4223;DHT22;2125;51.436;14.138;2022-08-01T08:05:15;24.60;72.50
4223;DHT22;2125;51.436;14.138;2022-08-01T08:07:42;24.60;71.30
4223;DHT22;2125;51.436;14.138;2022-08-01T08:10:09;24.40;71.80
4223;DHT22;2125;51.436;14.138;2022-08-01T08:12:36;24.40;72.60
4223;DHT22;2125;51.436;14.138;2022-08-01T08:15:05;24.30;71.50
4223;DHT22;2125;51.436;14.138;2022-08-01T08:17:32;24.40;71.10
4223;DHT22;2125;51.436;14.138;2022-08-01T08:19:58;24.50;71.30
4223;DHT22;2125;51.436;14.138;2022-08-01T08:22:25;24.70;71.70
4223;DHT22;2125;51.436;14.138;2022-08-01T08:24:52;25.10;70.00
4223;DHT22;2125;51.436;14.138;2022-08-01T08:27:18;25.10;70.30
4223;DHT22;2125;51.436;14.138;2022-08-01T08:29:45;25.00;71.00
4223;DHT22;2125;51.436;14.138;2022-08-01T08:32:13;24.90;71.10
4223;DHT22;2125;51.436;14.138;2022-08-01T08:34:40;24.90;71.40
4223;DHT22;2125;51.436;14.138;2022-08-01T08:37:06;25.00;70.90
4223;DHT22;2125;51.436;14.138;2022-08-01T08:39:33;24.90;72.20
4223;DHT22;2125;51.436;14.138;2022-08-01T08:42:00;24.90;71.80
4223;DHT22;2125;51.436;14.138;2022-08-01T08:44:28;24.70;72.50
4223;DHT22;2125;51.436;14.138;2022-08-01T08:46:58;24.60;72.80
4223;DHT22;2125;51.436;14.138;2022-08-01T08:49:29;24.70;73.10
4223;DHT22;2125;51.436;14.138;2022-08-01T08:51:59;25.10;71.60
4223;DHT22;2125;51.436;14.138;2022-08-01T08:54:27;25.30;70.50
4223;DHT22;2125;51.436;14.138;2022-08-01T08:56:54;25.30;70.40
4223;DHT22;2125;51.436;14.138;2022-08-01T08:59:21;25.10;69.70
4223;DHT22;2125;51.436;14.138;2022-08-01T09:01:49;24.80;71.00
4223;DHT22;2125;51.436;14.138;2022-08-01T09:04:17;24.50;71.80
4223;DHT22;2125;51.436;14.138;2022-08-01T09:06:47;24.70;72.20
4223;DHT22;2125;51.436;14.138;2022-08-01T09:09:14;24.90;72.30
4223;DHT22;2125;51.436;14.138;2022-08-01T09:11:41;25.30;70.40
4223;DHT22;2125;51.436;14.138;2022-08-01T09:14:09;25.50;68.20
4223;DHT22;2125;51.436;14.138;2022-08-01T09:16:42;25.40;68.60
4223;DHT22;2125;51.436;14.138;2022-08-01T09:19:11;25.30;69.00
4223;DHT22;2125;51.436;14.138;2022-08-01T09:21:55;25.20;68.50
4223;DHT22;2125;51.436;14.138;2022-08-01T09:24:25;24.90;70.10
4223;DHT22;2125;51.436;14.138;2022-08-01T09:26:53;24.60;71.70
4223;DHT22;2125;51.436;14.138;2022-08-01T09:29:21;24.40;72.20
4223;DHT22;2125;51.436;14.138;2022-08-01T09:31:48;24.30;73.30
4223;DHT22;2125;51.436;14.138;2022-08-01T09:34:15;24.20;73.40
4223;DHT22;2125;51.436;14.138;2022-08-01T09:36:47;24.20;73.60
4223;DHT22;2125;51.436;14.138;2022-08-01T09:39:17;24.00;74.30
4223;DHT22;2125;51.436;14.138;2022-08-01T09:41:46;24.00;73.50
4223;DHT22;2125;51.436;14.138;2022-08-01T09:44:13;24.00;73.50
4223;DHT22;2125;51.436;14.138;2022-08-01T09:46:49;24.30;72.70
4223;DHT22;2125;51.436;14.138;2022-08-01T09:49:27;24.60;71.60
4223;DHT22;2125;51.436;14.138;2022-08-01T09:51:54;25.00;70.80
4223;DHT22;2125;51.436;14.138;2022-08-01T09:54:28;25.20;70.20
4223;DHT22;2125;51.436;14.138;2022-08-01T09:57:07;25.30;69.00
4223;DHT22;2125;51.436;14.138;2022-08-01T09:59:34;25.50;69.30
4223;DHT22;2125;51.436;14.138;2022-08-01T10:02:03;25.90;69.70
4223;DHT22;2125;51.436;14.138;2022-08-01T10:04:29;26.30;68.10
4223;DHT22;2125;51.436;14.138;2022-08-01T10:07:05;26.50;66.50
4223;DHT22;2125;51.436;14.138;2022-08-01T10:09:34;26.30;66.90
4223;DHT22;2125;51.436;14.138;2022-08-01T10:12:03;25.90;67.50
4223;DHT22;2125;51.436;14.138;2022-08-01T10:14:31;25.70;67.90
4223;DHT22;2125;51.436;14.138;2022-08-01T10:16:59;25.70;67.60
4223;DHT22;2125;51.436;14.138;2022-08-01T10:19:28;25.70;68.30
4223;DHT22;2125;51.436;14.138;2022-08-01T10:21:56;25.60;66.90
4223;DHT22;2125;51.436;14.138;2022-08-01T10:24:25;25.40;67.80
4223;DHT22;2125;51.436;14.138;2022-08-01T10:26:55;25.40;67.90
4223;DHT22;2125;51.436;14.138;2022-08-01T10:29:27;25.60;68.20
4223;DHT22;2125;51.436;14.138;2022-08-01T10:31:54;25.90;66.80
4223;DHT22;2125;51.436;14.138;2022-08-01T10:34:20;26.20;67.10
4223;DHT22;2125;51.436;14.138;2022-08-01T10:36:48;26.40;66.10
4223;DHT22;2125;51.436;14.138;2022-08-01T10:39:15;26.10;65.90
4223;DHT22;2125;51.436;14.138;2022-08-01T10:41:44;25.70;66.50
4223;DHT22;2125;51.436;14.138;2022-08-01T10:44:11;25.30;68.40
4223;DHT22;2125;51.436;14.138;2022-08-01T10:46:46;25.00;69.40
4223;DHT22;2125;51.436;14.138;2022-08-01T10:49:17;24.80;71.10
4223;DHT22;2125;51.436;14.138;2022-08-01T10:51:46;24.30;72.30
4223;DHT22;2125;51.436;14.138;2022-08-01T10:54:13;24.00;74.30
4223;DHT22;2125;51.436;14.138;2022-08-01T10:56:40;23.60;75.70
4223;DHT22;2125;51.436;14.138;2022-08-01T10:59:08;23.30;77.40
4223;DHT22;2125;51.436;14.138;2022-08-01T11:01:35;23.30;77.30
4223;DHT22;2125;51.436;14.138;2022-08-01T11:04:08;23.40;77.50
4223;DHT22;2125;51.436;14.138;2022-08-01T11:06:40;23.30;76.90
4223;DHT22;2125;51.436;14.138;2022-08-01T11:09:23;23.50;76.90
4223;DHT22;2125;51.436;14.138;2022-08-01T11:12:03;23.70;76.40
4223;DHT22;2125;51.436;14.138;2022-08-01T11:15:15;24.10;76.20
4223;DHT22;2125;51.436;14.138;2022-08-01T11:17:32;24.70;74.00
4223;DHT22;2125;51.436;14.138;2022-08-01T11:20:11;24.60;73.00
4223;DHT22;2125;51.436;14.138;2022-08-01T11:23:15;24.30;72.80
4223;DHT22;2125;51.436;14.138;2022-08-01T11:26:05;23.90;74.60
4223;DHT22;2125;51.436;14.138;2022-08-01T11:28:32;23.50;75.10
4223;DHT22;2125;51.436;14.138;2022-08-01T11:31:24;23.40;75.60
4223;DHT22;2125;51.436;14.138;2022-08-01T11:33:51;23.30;75.40
4223;DHT22;2125;51.436;14.138;2022-08-01T11:36:19;23.40;75.20
4223;DHT22;2125;51.436;14.138;2022-08-01T11:38:47;23.40;74.90
4223;DHT22;2125;51.436;14.138;2022-08-01T11:41:15;23.70;74.50
4223;DHT22;2125;51.436;14.138;2022-08-01T11:43:58;24.20;72.20
4223;DHT22;2125;51.436;14.138;2022-08-01T11:46:57;24.20;70.60
4223;DHT22;2125;51.436;14.138;2022-08-01T11:49:34;24.20;71.10
4223;DHT22;2125;51.436;14.138;2022-08-01T11:52:12;24.40;70.60
4223;DHT22;2125;51.436;14.138;2022-08-01T11:54:42;24.50;69.40
4223;DHT22;2125;51.436;14.138;2022-08-01T11:57:10;24.50;70.00
4223;DHT22;2125;51.436;14.138;2022-08-01T11:59:39;24.80;69.10
4223;DHT22;2125;51.436;14.138;2022-08-01T12:02:19;24.80;68.80
4223;DHT22;2125;51.436;14.138;2022-08-01T12:04:54;24.80;69.00
4223;DHT22;2125;51.436;14.138;2022-08-01T12:07:23;24.90;69.80
4223;DHT22;2125;51.436;14.138;2022-08-01T12:09:57;24.80;69.50
4223;DHT22;2125;51.436;14.138;2022-08-01T12:12:28;24.90;71.10
4223;DHT22;2125;51.436;14.138;2022-08-01T12:14:57;24.90;70.20
4223;DHT22;2125;51.436;14.138;2022-08-01T12:17:35;24.80;69.60
4223;DHT22;2125;51.436;14.138;2022-08-01T12:20:19;24.50;70.90
4223;DHT22;2125;51.436;14.138;2022-08-01T12:22:54;24.60;70.90
4223;DHT22;2125;51.436;14.138;2022-08-01T12:25:22;24.80;70.60
4223;DHT22;2125;51.436;14.138;2022-08-01T12:27:49;24.90;70.30
4223;DHT22;2125;51.436;14.138;2022-08-01T12:30:17;25.10;69.60
4223;DHT22;2125;51.436;14.138;2022-08-01T12:32:46;25.30;69.90
4223;DHT22;2125;51.436;14.138;2022-08-01T12:35:14;25.40;69.50
4223;DHT22;2125;51.436;14.138;2022-08-01T12:37:43;25.70;68.40
4223;DHT22;2125;51.436;14.138;2022-08-01T12:40:13;25.80;68.40
4223;DHT22;2125;51.436;14.138;2022-08-01T12:42:41;26.10;66.80
4223;DHT22;2125;51.436;14.138;2022-08-01T12:45:10;26.20;66.30
4223;DHT22;2125;51.436;14.138;2022-08-01T12:47:38;26.20;66.50
4223;DHT22;2125;51.436;14.138;2022-08-01T12:50:07;26.10;66.70
4223;DHT22;2125;51.436;14.138;2022-08-01T12:52:34;25.90;66.40
4223;DHT22;2125;51.436;14.138;2022-08-01T12:55:07;26.30;65.20
4223;DHT22;2125;51.436;14.138;2022-08-01T12:57:37;26.60;64.20
4223;DHT22;2125;51.436;14.138;2022-08-01T13:00:06;26.80;63.60
4223;DHT22;2125;51.436;14.138;2022-08-01T13:02:34;26.80;63.50
4223;DHT22;2125;51.436;14.138;2022-08-01T13:05:01;26.40;63.70
4223;DHT22;2125;51.436;14.138;2022-08-01T13:07:35;26.20;64.30
4223;DHT22;2125;51.436;14.138;2022-08-01T13:10:03;26.30;64.60
4223;DHT22;2125;51.436;14.138;2022-08-01T13:12:30;26.40;64.50
4223;DHT22;2125;51.436;14.138;2022-08-01T13:14:58;26.70;63.50
4223;DHT22;2125;51.436;14.138;2022-08-01T13:17:31;26.50;63.60
4223;DHT22;2125;51.436;14.138;2022-08-01T13:20:00;26.40;63.80
4223;DHT22;2125;51.436;14.138;2022-08-01T13:22:36;25.90;64.20
4223;DHT22;2125;51.436;14.138;2022-08-01T13:25:11;25.80;64.90
4223;DHT22;2125;51.436;14.138;2022-08-01T13:27:37;25.60;65.40
4223;DHT22;2125;51.436;14.138;2022-08-01T13:30:13;25.60;66.00
4223;DHT22;2125;51.436;14.138;2022-08-01T13:32:40;25.50;66.30
4223;DHT22;2125;51.436;14.138;2022-08-01T13:35:09;25.50;66.90
4223;DHT22;2125;51.436;14.138;2022-08-01T13:37:38;25.50;66.40
4223;DHT22;2125;51.436;14.138;2022-08-01T13:40:06;25.30;67.50
4223;DHT22;2125;51.436;14.138;2022-08-01T13:42:33;25.30;67.30
4223;DHT22;2125;51.436;14.138;2022-08-01T13:45:00;25.40;67.40
4223;DHT22;2125;51.436;14.138;2022-08-01T13:47:28;25.70;67.00
4223;DHT22;2125;51.436;14.138;2022-08-01T13:49:55;25.90;66.50
4223;DHT22;2125;51.436;14.138;2022-08-01T13:52:25;26.20;65.20
4223;DHT22;2125;51.436;14.138;2022-08-01T13:54:52;26.10;65.60
4223;DHT22;2125;51.436;14.138;2022-08-01T13:57:18;25.90;65.00
4223;DHT22;2125;51.436;14.138;2022-08-01T13:59:46;25.90;65.90
4223;DHT22;2125;51.436;14.138;2022-08-01T14:02:12;25.90;66.30
4223;DHT22;2125;51.436;14.138;2022-08-01T14:04:40;25.80;66.90
4223;DHT22;2125;51.436;14.138;2022-08-01T14:07:08;25.90;66.50
4223;DHT22;2125;51.436;14.138;2022-08-01T14:09:37;25.90;67.10
4223;DHT22;2125;51.436;14.138;2022-08-01T14:12:14;26.20;65.40
4223;DHT22;2125;51.436;14.138;2022-08-01T14:14:47;26.30;66.30
4223;DHT22;2125;51.436;14.138;2022-08-01T14:17:15;26.60;65.70
4223;DHT22;2125;51.436;14.138;2022-08-01T14:19:44;26.80;64.00
4223;DHT22;2125;51.436;14.138;2022-08-01T14:22:18;26.80;61.60
4223;DHT22;2125;51.436;14.138;2022-08-01T14:24:45;26.70;62.60
4223;DHT22;2125;51.436;14.138;2022-08-01T14:27:12;26.80;61.80
4223;DHT22;2125;51.436;14.138;2022-08-01T14:29:38;26.70;62.80
4223;DHT22;2125;51.436;14.138;2022-08-01T14:32:05;26.60;61.60
4223;DHT22;2125;51.436;14.138;2022-08-01T14:34:31;26.40;61.80
4223;DHT22;2125;51.436;14.138;2022-08-01T14:36:59;26.30;62.70
4223;DHT22;2125;51.436;14.138;2022-08-01T14:39:26;26.10;64.40
4223;DHT22;2125;51.436;14.138;2022-08-01T14:41:52;25.70;65.80
4223;DHT22;2125;51.436;14.138;2022-08-01T14:44:19;25.40;67.00
4223;DHT22;2125;51.436;14.138;2022-08-01T14:46:45;25.40;66.80
4223;DHT22;2125;51.436;14.138;2022-08-01T14:49:13;25.40;66.60
4223;DHT22;2125;51.436;14.138;2022-08-01T14:51:40;25.60;65.90
4223;DHT22;2125;51.436;14.138;2022-08-01T14:54:08;25.80;65.30
4223;DHT22;2125;51.436;14.138;2022-08-01T14:56:34;26.10;64.60
4223;DHT22;2125;51.436;14.138;2022-08-01T14:59:01;26.30;63.60
4223;DHT22;2125;51.436;14.138;2022-08-01T15:01:27;26.50;63.20
4223;DHT22;2125;51.436;14.138;2022-08-01T15:03:54;26.70;62.60
4223;DHT22;2125;51.436;14.138;2022-08-01T15:06:21;26.70;62.60
4223;DHT22;2125;51.436;14.138;2022-08-01T15:08:47;26.80;61.90
4223;DHT22;2125;51.436;14.138;2022-08-01T15:11:16;26.90;60.80
4223;DHT22;2125;51.436;14.138;2022-08-01T15:13:42;26.80;60.40
4223;DHT22;2125;51.436;14.138;2022-08-01T15:16:09;26.80;60.90
4223;DHT22;2125;51.436;14.138;2022-08-01T15:18:36;26.70;59.90
4223;DHT22;2125;51.436;14.138;2022-08-01T15:21:02;26.50;59.80
4223;DHT22;2125;51.436;14.138;2022-08-01T15:23:29;26.40;60.30
4223;DHT22;2125;51.436;14.138;2022-08-01T15:25:55;26.40;60.00
4223;DHT22;2125;51.436;14.138;2022-08-01T15:28:23;26.40;59.80
4223;DHT22;2125;51.436;14.138;2022-08-01T15:30:50;26.00;60.40
4223;DHT22;2125;51.436;14.138;2022-08-01T15:33:17;25.90;61.80
4223;DHT22;2125;51.436;14.138;2022-08-01T15:35:43;26.10;62.40
4223;DHT22;2125;51.436;14.138;2022-08-01T15:38:10;26.40;62.60
4223;DHT22;2125;51.436;14.138;2022-08-01T15:40:36;26.60;61.10
4223;DHT22;2125;51.436;14.138;2022-08-01T15:43:03;26.60;61.10
4223;DHT22;2125;51.436;14.138;2022-08-01T15:45:31;26.80;61.30
4223;DHT22;2125;51.436;14.138;2022-08-01T15:47:58;27.00;59.90
4223;DHT22;2125;51.436;14.138;2022-08-01T15:50:24;27.00;59.30
4223;DHT22;2125;51.436;14.138;2022-08-01T15:52:51;26.70;60.00
4223;DHT22;2125;51.436;14.138;2022-08-01T15:55:18;26.90;58.30